Terminal Aerodrome Forecast
Issued by NWS Boston, MA

Current Version | Previous Version | Text Only | Print | Product List | Glossary On
Versions: 1 2 3 4 5 6 7 8 9 10 11 12 13 14 15 16 17 18 19 20 21 22 23 24 25 26 27 28 29 30 31 32 33 34 35 36 37 38 39 40 41 42 43 44 45
000 FTUS41 KBOX 011125 TAFBOS TAF KBOS 011125Z 0112/0218 14006KT 3SM SHRA BR OVC070 FM011300 14007KT 3SM SHRA BR OVC040 FM011400 15006KT 3SM SHRA BR OVC010 FM011700 17008KT 3SM -SHRA OVC015 FM011900 18009KT P6SM VCSH BKN060 FM020000 21009KT P6SM BKN080 FM020500 25006KT P6SM SCT250=

USA.gov is the U.S. government's official web portal to all federal, state and local government web resources and services.